createdAt,value
2022-10-22T00:04:58.032Z,7.32
2022-10-22T00:10:04.015Z,7.19
2022-10-22T00:15:09.189Z,7.08
2022-10-22T00:20:13.499Z,6.98
2022-10-22T00:25:19.082Z,6.90
2022-10-22T00:30:23.413Z,6.65
2022-10-22T00:35:27.431Z,6.58
2022-10-22T00:40:33.000Z,6.75
2022-10-22T00:45:37.495Z,7.00
2022-10-22T00:50:44.833Z,6.77
2022-10-22T00:55:54.248Z,6.77
2022-10-22T01:00:59.214Z,6.70
2022-10-22T01:06:06.366Z,6.68
2022-10-22T01:11:21.033Z,6.45
2022-10-22T01:16:35.363Z,6.52
2022-10-22T01:21:45.179Z,6.76
2022-10-22T01:27:13.145Z,6.87
2022-10-22T01:32:21.750Z,6.79
2022-10-22T01:37:30.785Z,6.92
2022-10-22T01:42:35.082Z,6.46
2022-10-22T01:47:50.548Z,6.47
2022-10-22T01:53:12.844Z,6.90
2022-10-22T01:58:30.061Z,6.50
2022-10-22T02:03:42.063Z,6.40
2022-10-22T02:08:47.468Z,6.40
2022-10-22T02:13:55.752Z,6.31
2022-10-22T02:19:05.551Z,6.41
2022-10-22T02:24:10.314Z,6.24
2022-10-22T02:29:20.078Z,6.13
2022-10-22T02:34:31.534Z,6.22
2022-10-22T02:39:39.781Z,6.03
2022-10-22T02:44:44.419Z,6.10
2022-10-22T02:49:49.895Z,6.07
2022-10-22T02:54:54.225Z,6.04
2022-10-22T02:59:58.167Z,5.76
2022-10-22T03:05:03.780Z,5.68
2022-10-22T03:10:08.746Z,5.34
2022-10-22T03:15:12.670Z,6.06
2022-10-22T03:20:18.083Z,6.12
2022-10-22T03:25:26.551Z,6.24
2022-10-22T03:30:33.647Z,6.27
2022-10-22T03:35:44.777Z,6.23
2022-10-22T03:40:49.401Z,6.06
2022-10-22T03:45:53.622Z,5.89
2022-10-22T03:51:00.391Z,6.05
2022-10-22T03:56:04.833Z,6.39
2022-10-22T04:01:12.003Z,6.54
2022-10-22T04:06:18.150Z,6.40
2022-10-22T04:11:22.645Z,6.49
2022-10-22T04:16:31.172Z,6.25
2022-10-22T04:21:38.837Z,5.41
2022-10-22T04:26:43.212Z,5.55
2022-10-22T04:31:47.389Z,5.54
2022-10-22T04:36:52.838Z,5.98
2022-10-22T04:41:57.319Z,6.06
2022-10-22T04:47:01.552Z,6.19
2022-10-22T04:52:07.652Z,6.41
2022-10-22T04:57:11.853Z,6.25
2022-10-22T05:02:17.490Z,6.19
2022-10-22T05:07:24.818Z,6.07
2022-10-22T05:12:31.361Z,5.77
2022-10-22T05:17:38.946Z,6.44
2022-10-22T05:22:45.530Z,6.59
2022-10-22T05:27:51.313Z,6.62
2022-10-22T05:32:56.011Z,6.91
2022-10-22T05:38:01.613Z,7.02
2022-10-22T05:43:05.692Z,6.80
2022-10-22T05:48:11.782Z,6.40
2022-10-22T05:53:18.773Z,6.70
2022-10-22T05:58:23.019Z,7.04
2022-10-22T06:03:29.079Z,7.20
2022-10-22T06:08:35.220Z,7.42
2022-10-22T06:13:40.045Z,7.73
2022-10-22T06:18:44.336Z,7.47
2022-10-22T06:23:50.685Z,7.36
2022-10-22T06:28:55.936Z,7.90
2022-10-22T06:34:00.360Z,8.14
2022-10-22T06:39:07.456Z,8.35
2022-10-22T06:44:15.712Z,8.47
2022-10-22T06:49:20.590Z,8.47
2022-10-22T06:54:26.003Z,8.46
2022-10-22T06:59:30.030Z,8.63
2022-10-22T07:04:36.371Z,10.17
2022-10-22T07:09:41.834Z,11.41
2022-10-22T07:14:46.030Z,12.17
2022-10-22T07:19:51.289Z,12.37
2022-10-22T07:25:01.607Z,11.84
2022-10-22T07:30:09.769Z,11.79
2022-10-22T07:35:16.999Z,13.06
2022-10-22T07:40:24.871Z,14.42
2022-10-22T07:45:29.143Z,15.27
2022-10-22T07:50:33.153Z,15.09
2022-10-22T07:55:39.086Z,14.86
2022-10-22T08:00:43.668Z,15.77
2022-10-22T08:05:47.894Z,17.05
2022-10-22T08:10:58.707Z,17.34
2022-10-22T08:16:03.679Z,18.01
2022-10-22T08:21:08.143Z,18.88
2022-10-22T08:26:13.620Z,19.25
2022-10-22T08:31:17.643Z,19.46
2022-10-22T08:36:22.086Z,18.31
2022-10-22T08:41:27.870Z,17.76
2022-10-22T08:46:46.026Z,19.05
2022-10-22T08:51:50.599Z,19.59
2022-10-22T08:57:13.733Z,20.30
2022-10-22T09:02:35.550Z,20.76
2022-10-22T09:07:50.056Z,20.86
2022-10-22T09:12:57.802Z,20.50
2022-10-22T09:18:15.854Z,21.23
2022-10-22T09:23:30.928Z,21.62
2022-10-22T09:28:37.985Z,22.22
2022-10-22T09:33:43.186Z,22.54
2022-10-22T09:38:48.896Z,22.83
2022-10-22T09:43:56.361Z,23.67
2022-10-22T09:49:07.787Z,23.49
2022-10-22T09:54:17.757Z,23.17
2022-10-22T09:59:30.811Z,23.46
2022-10-22T10:04:39.735Z,23.30
2022-10-22T10:09:43.914Z,22.91
2022-10-22T10:15:01.181Z,22.90
2022-10-22T10:20:18.302Z,23.23
2022-10-22T10:25:35.722Z,24.02
2022-10-22T10:30:52.260Z,24.29
2022-10-22T10:36:05.168Z,23.88
2022-10-22T10:41:20.068Z,24.31
2022-10-22T10:46:36.922Z,24.32
2022-10-22T10:51:51.562Z,24.68
2022-10-22T10:57:01.921Z,24.66
2022-10-22T11:02:33.630Z,24.67
2022-10-22T11:07:51.049Z,25.11
2022-10-22T11:13:04.531Z,24.81
2022-10-22T11:18:19.198Z,25.10
2022-10-22T11:23:30.214Z,25.13
2022-10-22T11:28:39.195Z,24.78
2022-10-22T11:33:54.598Z,24.88
2022-10-22T11:39:05.575Z,25.19
2022-10-22T11:44:11.998Z,24.87
2022-10-22T11:49:25.587Z,23.99
2022-10-22T11:54:43.023Z,24.24
2022-10-22T11:59:51.754Z,24.97
2022-10-22T12:05:33.708Z,24.90
2022-10-22T12:10:56.785Z,24.73
2022-10-22T12:16:04.879Z,23.03
2022-10-22T12:21:14.950Z,22.28
2022-10-22T12:26:34.813Z,21.68
2022-10-22T12:31:41.709Z,21.27
2022-10-22T12:36:50.782Z,21.13
2022-10-22T12:41:55.058Z,21.20
2022-10-22T12:46:59.646Z,21.87
2022-10-22T12:52:10.963Z,22.74
2022-10-22T12:57:19.574Z,23.34
2022-10-22T13:02:25.671Z,23.54
2022-10-22T13:07:39.914Z,23.81
2022-10-22T13:12:46.379Z,23.87
2022-10-22T13:17:51.034Z,24.21
2022-10-22T13:23:00.449Z,24.21
2022-10-22T13:28:22.747Z,24.34
2022-10-22T13:33:32.274Z,24.21
2022-10-22T13:38:37.661Z,24.04
2022-10-22T13:43:41.685Z,23.94
2022-10-22T13:48:46.565Z,23.91
2022-10-22T13:53:54.113Z,24.16
2022-10-22T13:58:58.808Z,23.91
2022-10-22T14:04:03.242Z,24.13
2022-10-22T14:09:15.134Z,24.04
2022-10-22T14:14:19.748Z,23.98
2022-10-22T14:19:23.833Z,23.78
2022-10-22T14:24:29.300Z,23.38
2022-10-22T14:29:33.313Z,23.50
2022-10-22T14:34:37.411Z,23.44
2022-10-22T14:39:47.057Z,23.71
2022-10-22T14:44:51.231Z,23.07
2022-10-22T14:49:55.423Z,22.74
2022-10-22T14:55:01.092Z,21.79
2022-10-22T15:00:06.343Z,21.21
2022-10-22T15:05:10.495Z,20.54
2022-10-22T15:10:17.904Z,20.14
2022-10-22T15:15:22.864Z,19.45
2022-10-22T15:20:29.037Z,18.99
2022-10-22T15:25:36.581Z,18.32
2022-10-22T15:30:42.862Z,17.65
2022-10-22T15:35:48.306Z,17.52
2022-10-22T15:41:05.288Z,17.28
2022-10-22T15:46:13.045Z,16.97
2022-10-22T15:51:28.101Z,16.71
2022-10-22T15:56:34.077Z,16.46
2022-10-22T16:01:41.667Z,16.24
2022-10-22T16:06:50.468Z,16.46
2022-10-22T16:11:57.788Z,15.71
2022-10-22T16:17:02.153Z,15.63
2022-10-22T16:22:11.972Z,15.77
2022-10-22T16:27:17.368Z,15.62
2022-10-22T16:32:21.366Z,15.16
2022-10-22T16:37:25.399Z,15.17
2022-10-22T16:42:31.057Z,15.31
2022-10-22T16:47:37.502Z,15.21
2022-10-22T16:52:43.881Z,14.84
2022-10-22T16:57:53.719Z,14.82
2022-10-22T17:02:59.122Z,14.57
2022-10-22T17:08:03.500Z,14.57
2022-10-22T17:13:09.148Z,14.20
2022-10-22T17:18:14.072Z,14.23
2022-10-22T17:23:19.263Z,14.11
2022-10-22T17:28:26.183Z,13.71
2022-10-22T17:33:31.647Z,13.61
2022-10-22T17:38:36.965Z,13.46
2022-10-22T17:48:58.720Z,13.19
2022-10-22T17:54:05.921Z,12.96
2022-10-22T17:59:18.107Z,12.93
2022-10-22T18:04:26.309Z,13.00
2022-10-22T18:09:30.571Z,13.19
2022-10-22T18:14:36.414Z,13.06
2022-10-22T18:19:41.482Z,12.67
2022-10-22T18:24:45.733Z,12.77
2022-10-22T18:29:52.345Z,12.76
2022-10-22T18:34:56.562Z,12.56
2022-10-22T18:40:00.576Z,12.57
2022-10-22T18:45:07.136Z,12.36
2022-10-22T18:50:12.255Z,12.23
2022-10-22T18:55:16.609Z,11.95
2022-10-22T19:00:22.923Z,12.15
2022-10-22T19:05:27.592Z,12.02
2022-10-22T19:10:31.642Z,11.90
2022-10-22T19:15:40.616Z,11.93
2022-10-22T19:20:49.329Z,11.70
2022-10-22T19:26:02.131Z,11.89
2022-10-22T19:31:09.285Z,11.76
2022-10-22T19:36:15.380Z,11.81
2022-10-22T19:41:21.455Z,11.85
2022-10-22T19:46:29.082Z,11.62
2022-10-22T19:51:34.851Z,11.83
2022-10-22T19:56:41.517Z,11.76
2022-10-22T20:01:48.263Z,11.67
2022-10-22T20:06:52.809Z,11.67
2022-10-22T20:11:57.038Z,11.54
2022-10-22T20:17:02.686Z,11.56
2022-10-22T20:22:06.759Z,11.38
2022-10-22T20:27:11.101Z,11.62
2022-10-22T20:32:17.915Z,11.58
2022-10-22T20:37:22.707Z,11.14
2022-10-22T20:42:26.803Z,11.45
2022-10-22T20:47:44.417Z,11.22
2022-10-22T20:52:56.637Z,11.14
2022-10-22T20:58:02.231Z,10.91
2022-10-22T21:03:08.012Z,11.04
2022-10-22T21:08:19.646Z,11.12
2022-10-22T21:13:23.823Z,10.96
2022-10-22T21:18:29.841Z,10.79
2022-10-22T21:23:37.781Z,10.79
2022-10-22T21:28:41.863Z,10.54
2022-10-22T21:33:47.632Z,10.63
2022-10-22T21:38:54.802Z,10.76
2022-10-22T21:44:00.138Z,10.92
2022-10-22T21:49:06.055Z,10.96
2022-10-22T21:54:12.374Z,10.90
2022-10-22T21:59:16.325Z,11.16
2022-10-22T22:04:21.654Z,10.86
2022-10-22T22:09:25.715Z,10.49
2022-10-22T22:14:30.745Z,10.39
2022-10-22T22:19:36.168Z,10.33
2022-10-22T22:24:40.946Z,10.42
2022-10-22T22:29:45.446Z,10.77
2022-10-22T22:34:50.821Z,10.39
2022-10-22T22:39:55.110Z,10.42
2022-10-22T22:44:59.736Z,10.33
2022-10-22T22:50:06.028Z,10.46
2022-10-22T22:55:11.014Z,10.60
2022-10-22T23:00:15.608Z,10.15
2022-10-22T23:05:21.008Z,10.40
2022-10-22T23:10:25.413Z,10.35
2022-10-22T23:15:29.807Z,10.17
2022-10-22T23:20:39.471Z,9.93
2022-10-22T23:25:43.430Z,10.14
2022-10-22T23:30:47.440Z,10.16
2022-10-22T23:35:52.945Z,9.99
2022-10-22T23:40:58.200Z,9.95
2022-10-22T23:46:02.408Z,9.81
2022-10-22T23:51:09.346Z,9.97
2022-10-22T23:56:16.762Z,10.17
